sensor_id;sensor_type;location;lat;lon;timestamp;P1;durP1;ratioP1;P2;durP2;ratioP2
77304;SDS011;66364;52.622;7.746;2022-12-29T00:00:55;7.67;;;7.08;;
77304;SDS011;66364;52.622;7.746;2022-12-29T00:02:55;8.33;;;7.73;;
77304;SDS011;66364;52.622;7.746;2022-12-29T00:04:56;7.80;;;7.30;;
77304;SDS011;66364;52.622;7.746;2022-12-29T00:06:57;8.10;;;7.50;;
77304;SDS011;66364;52.622;7.746;2022-12-29T00:08:57;6.60;;;6.00;;
77304;SDS011;66364;52.622;7.746;2022-12-29T00:10:59;7.95;;;7.25;;
77304;SDS011;66364;52.622;7.746;2022-12-29T00:12:59;7.03;;;6.53;;
77304;SDS011;66364;52.622;7.746;2022-12-29T00:15:00;7.00;;;6.43;;
77304;SDS011;66364;52.622;7.746;2022-12-29T00:17:01;6.20;;;5.70;;
77304;SDS011;66364;52.622;7.746;2022-12-29T00:19:02;5.93;;;5.53;;
77304;SDS011;66364;52.622;7.746;2022-12-29T00:21:12;6.22;;;5.72;;
77304;SDS011;66364;52.622;7.746;2022-12-29T00:23:38;5.28;;;4.70;;
77304;SDS011;66364;52.622;7.746;2022-12-29T00:25:39;4.47;;;4.08;;
77304;SDS011;66364;52.622;7.746;2022-12-29T00:27:39;5.13;;;4.73;;
77304;SDS011;66364;52.622;7.746;2022-12-29T00:29:40;4.57;;;4.20;;
77304;SDS011;66364;52.622;7.746;2022-12-29T00:31:41;4.53;;;4.23;;
77304;SDS011;66364;52.622;7.746;2022-12-29T00:33:41;4.40;;;4.10;;
77304;SDS011;66364;52.622;7.746;2022-12-29T00:37:54;4.55;;;4.25;;
77304;SDS011;66364;52.622;7.746;2022-12-29T00:39:57;4.83;;;4.40;;
77304;SDS011;66364;52.622;7.746;2022-12-29T00:42:04;3.90;;;3.60;;
77304;SDS011;66364;52.622;7.746;2022-12-29T00:46:11;3.50;;;3.30;;
77304;SDS011;66364;52.622;7.746;2022-12-29T00:48:12;4.20;;;3.80;;
77304;SDS011;66364;52.622;7.746;2022-12-29T00:50:13;4.17;;;3.40;;
77304;SDS011;66364;52.622;7.746;2022-12-29T00:52:13;3.60;;;3.20;;
77304;SDS011;66364;52.622;7.746;2022-12-29T00:54:14;3.03;;;2.83;;
77304;SDS011;66364;52.622;7.746;2022-12-29T00:56:16;3.27;;;2.80;;
77304;SDS011;66364;52.622;7.746;2022-12-29T00:58:16;3.23;;;2.93;;
77304;SDS011;66364;52.622;7.746;2022-12-29T01:00:17;5.97;;;2.83;;
77304;SDS011;66364;52.622;7.746;2022-12-29T01:02:18;3.70;;;3.40;;
77304;SDS011;66364;52.622;7.746;2022-12-29T01:04:19;2.60;;;2.40;;
77304;SDS011;66364;52.622;7.746;2022-12-29T01:06:22;2.52;;;2.33;;
77304;SDS011;66364;52.622;7.746;2022-12-29T01:08:23;3.05;;;2.77;;
77304;SDS011;66364;52.622;7.746;2022-12-29T01:10:24;2.70;;;2.23;;
77304;SDS011;66364;52.622;7.746;2022-12-29T01:12:24;3.13;;;2.80;;
77304;SDS011;66364;52.622;7.746;2022-12-29T01:14:25;2.70;;;2.50;;
77304;SDS011;66364;52.622;7.746;2022-12-29T01:16:26;2.52;;;2.33;;
77304;SDS011;66364;52.622;7.746;2022-12-29T01:20:31;2.42;;;2.22;;
77304;SDS011;66364;52.622;7.746;2022-12-29T01:22:32;2.80;;;2.60;;
77304;SDS011;66364;52.622;7.746;2022-12-29T01:24:33;2.60;;;2.40;;
77304;SDS011;66364;52.622;7.746;2022-12-29T01:26:33;2.83;;;2.40;;
77304;SDS011;66364;52.622;7.746;2022-12-29T01:28:34;2.17;;;2.07;;
77304;SDS011;66364;52.622;7.746;2022-12-29T01:30:35;2.30;;;2.10;;
77304;SDS011;66364;52.622;7.746;2022-12-29T01:32:36;1.70;;;1.60;;
77304;SDS011;66364;52.622;7.746;2022-12-29T01:34:36;2.60;;;2.20;;
77304;SDS011;66364;52.622;7.746;2022-12-29T01:36:37;1.90;;;1.80;;
77304;SDS011;66364;52.622;7.746;2022-12-29T01:38:38;2.40;;;2.20;;
77304;SDS011;66364;52.622;7.746;2022-12-29T01:40:45;2.67;;;2.10;;
77304;SDS011;66364;52.622;7.746;2022-12-29T01:42:46;2.58;;;2.37;;
77304;SDS011;66364;52.622;7.746;2022-12-29T01:46:56;2.00;;;1.90;;
77304;SDS011;66364;52.622;7.746;2022-12-29T01:48:59;2.13;;;2.03;;
77304;SDS011;66364;52.622;7.746;2022-12-29T01:51:02;3.00;;;2.65;;
77304;SDS011;66364;52.622;7.746;2022-12-29T01:53:08;2.30;;;1.87;;
77304;SDS011;66364;52.622;7.746;2022-12-29T01:55:11;2.12;;;1.80;;
77304;SDS011;66364;52.622;7.746;2022-12-29T01:57:17;2.20;;;2.00;;
77304;SDS011;66364;52.622;7.746;2022-12-29T01:59:22;3.05;;;2.27;;
77304;SDS011;66364;52.622;7.746;2022-12-29T02:01:25;2.70;;;1.80;;
77304;SDS011;66364;52.622;7.746;2022-12-29T02:03:26;2.20;;;2.00;;
77304;SDS011;66364;52.622;7.746;2022-12-29T02:07:53;1.50;;;1.40;;
77304;SDS011;66364;52.622;7.746;2022-12-29T02:09:56;2.00;;;1.85;;
77304;SDS011;66364;52.622;7.746;2022-12-29T02:11:58;1.80;;;1.70;;
77304;SDS011;66364;52.622;7.746;2022-12-29T02:13:59;2.20;;;1.65;;
77304;SDS011;66364;52.622;7.746;2022-12-29T02:19:13;2.62;;;2.45;;
77304;SDS011;66364;52.622;7.746;2022-12-29T02:23:13;2.12;;;2.02;;
77304;SDS011;66364;52.622;7.746;2022-12-29T02:27:31;2.20;;;2.10;;
77304;SDS011;66364;52.622;7.746;2022-12-29T02:36:46;1.50;;;1.40;;
77304;SDS011;66364;52.622;7.746;2022-12-29T02:39:05;1.57;;;1.00;;
77304;SDS011;66364;52.622;7.746;2022-12-29T02:41:31;1.07;;;0.98;;
77304;SDS011;66364;52.622;7.746;2022-12-29T02:45:45;1.20;;;1.10;;
77304;SDS011;66364;52.622;7.746;2022-12-29T02:50:23;1.40;;;1.30;;
77304;SDS011;66364;52.622;7.746;2022-12-29T02:52:38;1.45;;;0.98;;
77304;SDS011;66364;52.622;7.746;2022-12-29T02:54:40;1.57;;;0.98;;
77304;SDS011;66364;52.622;7.746;2022-12-29T02:56:41;1.98;;;1.32;;
77304;SDS011;66364;52.622;7.746;2022-12-29T02:58:41;1.70;;;1.60;;
77304;SDS011;66364;52.622;7.746;2022-12-29T03:00:48;1.77;;;1.67;;
77304;SDS011;66364;52.622;7.746;2022-12-29T03:02:54;2.00;;;1.90;;
77304;SDS011;66364;52.622;7.746;2022-12-29T03:09:36;3.30;;;3.10;;
77304;SDS011;66364;52.622;7.746;2022-12-29T03:11:40;4.97;;;4.62;;
77304;SDS011;66364;52.622;7.746;2022-12-29T03:13:47;4.22;;;3.90;;
77304;SDS011;66364;52.622;7.746;2022-12-29T03:20:37;4.03;;;3.75;;
77304;SDS011;66364;52.622;7.746;2022-12-29T03:22:41;4.72;;;4.42;;
77304;SDS011;66364;52.622;7.746;2022-12-29T03:24:52;4.40;;;4.10;;
77304;SDS011;66364;52.622;7.746;2022-12-29T03:26:55;3.62;;;3.33;;
77304;SDS011;66364;52.622;7.746;2022-12-29T03:28:59;3.90;;;3.60;;
77304;SDS011;66364;52.622;7.746;2022-12-29T03:31:00;3.43;;;3.23;;
77304;SDS011;66364;52.622;7.746;2022-12-29T03:33:04;3.40;;;3.10;;
77304;SDS011;66364;52.622;7.746;2022-12-29T03:35:07;4.75;;;2.95;;
77304;SDS011;66364;52.622;7.746;2022-12-29T03:37:11;4.47;;;2.45;;
77304;SDS011;66364;52.622;7.746;2022-12-29T03:39:15;2.65;;;2.45;;
77304;SDS011;66364;52.622;7.746;2022-12-29T03:41:20;3.10;;;2.90;;
77304;SDS011;66364;52.622;7.746;2022-12-29T03:43:23;2.12;;;2.02;;
77304;SDS011;66364;52.622;7.746;2022-12-29T03:45:24;2.33;;;2.12;;
77304;SDS011;66364;52.622;7.746;2022-12-29T03:47:25;1.63;;;1.23;;
77304;SDS011;66364;52.622;7.746;2022-12-29T03:49:26;1.87;;;1.52;;
77304;SDS011;66364;52.622;7.746;2022-12-29T03:51:27;3.20;;;1.93;;
77304;SDS011;66364;52.622;7.746;2022-12-29T03:53:29;1.97;;;1.43;;
77304;SDS011;66364;52.622;7.746;2022-12-29T03:55:30;1.65;;;1.37;;
77304;SDS011;66364;52.622;7.746;2022-12-29T03:57:31;1.43;;;1.33;;
77304;SDS011;66364;52.622;7.746;2022-12-29T03:59:31;1.87;;;1.30;;
77304;SDS011;66364;52.622;7.746;2022-12-29T04:01:47;1.60;;;1.43;;
77304;SDS011;66364;52.622;7.746;2022-12-29T04:03:48;1.70;;;1.42;;
77304;SDS011;66364;52.622;7.746;2022-12-29T04:05:48;1.40;;;1.20;;
77304;SDS011;66364;52.622;7.746;2022-12-29T04:07:52;2.53;;;1.80;;
77304;SDS011;66364;52.622;7.746;2022-12-29T04:09:53;1.60;;;1.37;;
77304;SDS011;66364;52.622;7.746;2022-12-29T04:11:54;1.77;;;1.20;;
77304;SDS011;66364;52.622;7.746;2022-12-29T04:13:54;1.47;;;1.20;;
77304;SDS011;66364;52.622;7.746;2022-12-29T04:15:55;1.30;;;1.20;;
77304;SDS011;66364;52.622;7.746;2022-12-29T04:17:55;2.43;;;1.63;;
77304;SDS011;66364;52.622;7.746;2022-12-29T04:19:56;1.80;;;1.53;;
77304;SDS011;66364;52.622;7.746;2022-12-29T04:21:57;3.17;;;1.30;;
77304;SDS011;66364;52.622;7.746;2022-12-29T04:23:57;0.70;;;0.70;;
77304;SDS011;66364;52.622;7.746;2022-12-29T04:25:58;3.07;;;1.60;;
77304;SDS011;66364;52.622;7.746;2022-12-29T04:28:00;2.30;;;0.90;;
77304;SDS011;66364;52.622;7.746;2022-12-29T04:30:01;2.92;;;1.22;;
77304;SDS011;66364;52.622;7.746;2022-12-29T04:32:02;2.00;;;1.00;;
77304;SDS011;66364;52.622;7.746;2022-12-29T04:34:02;1.00;;;0.90;;
77304;SDS011;66364;52.622;7.746;2022-12-29T04:36:03;2.63;;;1.20;;
77304;SDS011;66364;52.622;7.746;2022-12-29T04:38:04;1.75;;;1.20;;
77304;SDS011;66364;52.622;7.746;2022-12-29T04:40:05;1.23;;;0.90;;
77304;SDS011;66364;52.622;7.746;2022-12-29T04:42:07;1.30;;;1.12;;
77304;SDS011;66364;52.622;7.746;2022-12-29T04:44:07;0.90;;;0.60;;
77304;SDS011;66364;52.622;7.746;2022-12-29T04:46:08;2.20;;;0.77;;
77304;SDS011;66364;52.622;7.746;2022-12-29T04:48:09;1.23;;;0.90;;
77304;SDS011;66364;52.622;7.746;2022-12-29T04:50:10;1.70;;;0.93;;
77304;SDS011;66364;52.622;7.746;2022-12-29T04:52:14;1.00;;;0.85;;
77304;SDS011;66364;52.622;7.746;2022-12-29T04:54:14;2.30;;;1.20;;
77304;SDS011;66364;52.622;7.746;2022-12-29T04:56:15;1.03;;;0.80;;
77304;SDS011;66364;52.622;7.746;2022-12-29T04:58:16;1.73;;;1.10;;
77304;SDS011;66364;52.622;7.746;2022-12-29T05:00:16;2.30;;;1.10;;
77304;SDS011;66364;52.622;7.746;2022-12-29T05:02:17;4.40;;;0.90;;
77304;SDS011;66364;52.622;7.746;2022-12-29T05:04:18;1.65;;;0.90;;
77304;SDS011;66364;52.622;7.746;2022-12-29T05:06:19;2.97;;;1.17;;
77304;SDS011;66364;52.622;7.746;2022-12-29T05:08:22;2.87;;;1.20;;
77304;SDS011;66364;52.622;7.746;2022-12-29T05:10:23;2.70;;;0.93;;
77304;SDS011;66364;52.622;7.746;2022-12-29T05:12:24;2.50;;;1.10;;
77304;SDS011;66364;52.622;7.746;2022-12-29T05:14:25;1.17;;;1.10;;
77304;SDS011;66364;52.622;7.746;2022-12-29T05:16:25;1.10;;;0.77;;
77304;SDS011;66364;52.622;7.746;2022-12-29T05:18:26;2.40;;;0.70;;
77304;SDS011;66364;52.622;7.746;2022-12-29T05:20:27;2.80;;;1.10;;
77304;SDS011;66364;52.622;7.746;2022-12-29T05:22:27;5.63;;;1.10;;
77304;SDS011;66364;52.622;7.746;2022-12-29T05:26:32;1.37;;;1.00;;
77304;SDS011;66364;52.622;7.746;2022-12-29T05:28:45;2.80;;;0.97;;
77304;SDS011;66364;52.622;7.746;2022-12-29T05:30:48;2.05;;;1.00;;
77304;SDS011;66364;52.622;7.746;2022-12-29T05:32:49;4.25;;;1.22;;
77304;SDS011;66364;52.622;7.746;2022-12-29T05:34:50;2.47;;;1.33;;
77304;SDS011;66364;52.622;7.746;2022-12-29T05:36:57;4.10;;;1.13;;
77304;SDS011;66364;52.622;7.746;2022-12-29T05:38:58;2.77;;;0.88;;
77304;SDS011;66364;52.622;7.746;2022-12-29T05:40:58;0.97;;;0.80;;
77304;SDS011;66364;52.622;7.746;2022-12-29T05:42:59;2.50;;;1.00;;
77304;SDS011;66364;52.622;7.746;2022-12-29T05:44:59;2.20;;;0.83;;
77304;SDS011;66364;52.622;7.746;2022-12-29T05:47:00;2.50;;;1.10;;
77304;SDS011;66364;52.622;7.746;2022-12-29T05:49:01;1.10;;;1.00;;
77304;SDS011;66364;52.622;7.746;2022-12-29T05:51:01;2.20;;;1.33;;
77304;SDS011;66364;52.622;7.746;2022-12-29T05:53:02;1.20;;;0.80;;
77304;SDS011;66364;52.622;7.746;2022-12-29T05:55:03;1.10;;;0.80;;
77304;SDS011;66364;52.622;7.746;2022-12-29T05:57:04;2.37;;;0.93;;
77304;SDS011;66364;52.622;7.746;2022-12-29T05:59:05;2.20;;;1.17;;
77304;SDS011;66364;52.622;7.746;2022-12-29T06:01:05;4.83;;;1.37;;
77304;SDS011;66364;52.622;7.746;2022-12-29T06:03:06;1.67;;;1.10;;
77304;SDS011;66364;52.622;7.746;2022-12-29T06:05:07;1.27;;;1.17;;
77304;SDS011;66364;52.622;7.746;2022-12-29T06:07:08;3.15;;;1.72;;
77304;SDS011;66364;52.622;7.746;2022-12-29T06:09:09;1.70;;;1.30;;
77304;SDS011;66364;52.622;7.746;2022-12-29T06:11:10;2.60;;;1.30;;
77304;SDS011;66364;52.622;7.746;2022-12-29T06:13:11;1.80;;;1.33;;
77304;SDS011;66364;52.622;7.746;2022-12-29T06:15:12;4.43;;;1.30;;
77304;SDS011;66364;52.622;7.746;2022-12-29T06:17:21;3.10;;;1.30;;
77304;SDS011;66364;52.622;7.746;2022-12-29T06:19:21;3.60;;;1.20;;
77304;SDS011;66364;52.622;7.746;2022-12-29T06:21:22;10.90;;;2.80;;
77304;SDS011;66364;52.622;7.746;2022-12-29T06:23:23;3.20;;;1.30;;
77304;SDS011;66364;52.622;7.746;2022-12-29T06:25:23;4.40;;;1.60;;
77304;SDS011;66364;52.622;7.746;2022-12-29T06:27:24;1.30;;;1.03;;
77304;SDS011;66364;52.622;7.746;2022-12-29T06:29:25;1.07;;;0.90;;
77304;SDS011;66364;52.622;7.746;2022-12-29T06:31:26;2.40;;;1.07;;
77304;SDS011;66364;52.622;7.746;2022-12-29T06:33:26;2.77;;;1.30;;
77304;SDS011;66364;52.622;7.746;2022-12-29T06:35:30;1.90;;;1.57;;
77304;SDS011;66364;52.622;7.746;2022-12-29T06:37:31;2.45;;;1.20;;
77304;SDS011;66364;52.622;7.746;2022-12-29T06:39:32;4.00;;;1.30;;
77304;SDS011;66364;52.622;7.746;2022-12-29T06:41:32;2.00;;;1.20;;
77304;SDS011;66364;52.622;7.746;2022-12-29T06:43:33;3.70;;;0.80;;
77304;SDS011;66364;52.622;7.746;2022-12-29T06:45:33;4.70;;;1.23;;
77304;SDS011;66364;52.622;7.746;2022-12-29T06:47:41;4.00;;;1.40;;
77304;SDS011;66364;52.622;7.746;2022-12-29T06:49:42;1.77;;;1.30;;
77304;SDS011;66364;52.622;7.746;2022-12-29T06:51:42;5.40;;;1.53;;
77304;SDS011;66364;52.622;7.746;2022-12-29T06:53:43;13.13;;;2.53;;
77304;SDS011;66364;52.622;7.746;2022-12-29T06:55:44;4.87;;;1.30;;
77304;SDS011;66364;52.622;7.746;2022-12-29T06:57:44;3.93;;;1.70;;
77304;SDS011;66364;52.622;7.746;2022-12-29T06:59:45;3.30;;;1.00;;
77304;SDS011;66364;52.622;7.746;2022-12-29T07:01:45;3.47;;;1.63;;
77304;SDS011;66364;52.622;7.746;2022-12-29T07:03:46;20.67;;;2.20;;
77304;SDS011;66364;52.622;7.746;2022-12-29T07:05:47;3.17;;;1.20;;
77304;SDS011;66364;52.622;7.746;2022-12-29T07:07:47;2.97;;;1.20;;
77304;SDS011;66364;52.622;7.746;2022-12-29T07:09:51;1.67;;;1.00;;
77304;SDS011;66364;52.622;7.746;2022-12-29T07:11:52;1.77;;;1.02;;
77304;SDS011;66364;52.622;7.746;2022-12-29T07:13:53;3.03;;;1.10;;
77304;SDS011;66364;52.622;7.746;2022-12-29T07:15:53;3.37;;;1.00;;
77304;SDS011;66364;52.622;7.746;2022-12-29T07:17:54;5.13;;;2.00;;
77304;SDS011;66364;52.622;7.746;2022-12-29T07:19:55;1.60;;;1.00;;
77304;SDS011;66364;52.622;7.746;2022-12-29T07:21:55;2.67;;;1.30;;
77304;SDS011;66364;52.622;7.746;2022-12-29T07:23:56;3.83;;;1.40;;
77304;SDS011;66364;52.622;7.746;2022-12-29T07:26:04;4.20;;;1.10;;
77304;SDS011;66364;52.622;7.746;2022-12-29T07:28:06;7.33;;;1.50;;
77304;SDS011;66364;52.622;7.746;2022-12-29T07:30:08;5.30;;;1.43;;
77304;SDS011;66364;52.622;7.746;2022-12-29T07:32:09;2.90;;;1.25;;
77304;SDS011;66364;52.622;7.746;2022-12-29T07:34:10;6.83;;;2.13;;
77304;SDS011;66364;52.622;7.746;2022-12-29T07:36:11;4.73;;;1.40;;
77304;SDS011;66364;52.622;7.746;2022-12-29T07:38:13;3.30;;;1.40;;
77304;SDS011;66364;52.622;7.746;2022-12-29T07:40:14;3.67;;;2.22;;
77304;SDS011;66364;52.622;7.746;2022-12-29T07:42:15;4.57;;;1.57;;
77304;SDS011;66364;52.622;7.746;2022-12-29T07:44:15;2.80;;;1.20;;
77304;SDS011;66364;52.622;7.746;2022-12-29T07:46:16;4.13;;;2.57;;
77304;SDS011;66364;52.622;7.746;2022-12-29T07:48:17;3.10;;;1.20;;
77304;SDS011;66364;52.622;7.746;2022-12-29T07:50:17;4.43;;;2.20;;
77304;SDS011;66364;52.622;7.746;2022-12-29T07:52:18;7.87;;;2.27;;
77304;SDS011;66364;52.622;7.746;2022-12-29T07:54:19;7.00;;;2.00;;
77304;SDS011;66364;52.622;7.746;2022-12-29T07:56:19;3.13;;;1.50;;
77304;SDS011;66364;52.622;7.746;2022-12-29T07:58:20;7.50;;;1.90;;
77304;SDS011;66364;52.622;7.746;2022-12-29T08:00:21;2.70;;;1.43;;
77304;SDS011;66364;52.622;7.746;2022-12-29T08:02:28;5.45;;;2.10;;
77304;SDS011;66364;52.622;7.746;2022-12-29T08:04:29;4.12;;;1.72;;
77304;SDS011;66364;52.622;7.746;2022-12-29T08:06:33;4.23;;;1.57;;
77304;SDS011;66364;52.622;7.746;2022-12-29T08:08:33;4.85;;;1.27;;
77304;SDS011;66364;52.622;7.746;2022-12-29T08:10:34;4.03;;;2.23;;
77304;SDS011;66364;52.622;7.746;2022-12-29T08:12:35;7.57;;;1.73;;
77304;SDS011;66364;52.622;7.746;2022-12-29T08:14:35;4.27;;;1.50;;
77304;SDS011;66364;52.622;7.746;2022-12-29T08:16:36;9.63;;;2.47;;
77304;SDS011;66364;52.622;7.746;2022-12-29T08:18:43;3.73;;;1.43;;
77304;SDS011;66364;52.622;7.746;2022-12-29T08:20:44;7.00;;;2.05;;
77304;SDS011;66364;52.622;7.746;2022-12-29T08:22:51;4.07;;;1.63;;
77304;SDS011;66364;52.622;7.746;2022-12-29T08:24:52;4.85;;;1.57;;
77304;SDS011;66364;52.622;7.746;2022-12-29T08:26:52;10.40;;;2.10;;
77304;SDS011;66364;52.622;7.746;2022-12-29T08:28:53;6.07;;;2.37;;
77304;SDS011;66364;52.622;7.746;2022-12-29T08:31:00;8.43;;;1.80;;
77304;SDS011;66364;52.622;7.746;2022-12-29T08:32:58;7.30;;;2.10;;
77304;SDS011;66364;52.622;7.746;2022-12-29T08:34:59;4.23;;;1.30;;
77304;SDS011;66364;52.622;7.746;2022-12-29T08:36:59;6.73;;;1.57;;
77304;SDS011;66364;52.622;7.746;2022-12-29T08:39:00;11.10;;;2.27;;
77304;SDS011;66364;52.622;7.746;2022-12-29T08:41:01;3.07;;;1.37;;
77304;SDS011;66364;52.622;7.746;2022-12-29T08:43:01;3.37;;;1.53;;
77304;SDS011;66364;52.622;7.746;2022-12-29T08:45:02;4.37;;;1.47;;
77304;SDS011;66364;52.622;7.746;2022-12-29T08:47:03;6.22;;;1.60;;
77304;SDS011;66364;52.622;7.746;2022-12-29T08:49:04;5.57;;;1.10;;
77304;SDS011;66364;52.622;7.746;2022-12-29T08:51:04;13.73;;;1.60;;
77304;SDS011;66364;52.622;7.746;2022-12-29T08:53:05;4.10;;;1.50;;
77304;SDS011;66364;52.622;7.746;2022-12-29T08:55:06;2.70;;;1.87;;
77304;SDS011;66364;52.622;7.746;2022-12-29T08:57:08;6.92;;;1.75;;
77304;SDS011;66364;52.622;7.746;2022-12-29T08:59:08;8.08;;;1.80;;
77304;SDS011;66364;52.622;7.746;2022-12-29T09:01:09;5.97;;;1.53;;
77304;SDS011;66364;52.622;7.746;2022-12-29T09:03:10;2.27;;;1.70;;
77304;SDS011;66364;52.622;7.746;2022-12-29T09:05:11;4.83;;;1.27;;
77304;SDS011;66364;52.622;7.746;2022-12-29T09:07:12;7.60;;;1.50;;
77304;SDS011;66364;52.622;7.746;2022-12-29T09:09:12;4.73;;;1.60;;
77304;SDS011;66364;52.622;7.746;2022-12-29T09:11:14;5.23;;;2.30;;
77304;SDS011;66364;52.622;7.746;2022-12-29T09:13:20;4.28;;;1.60;;
77304;SDS011;66364;52.622;7.746;2022-12-29T09:15:21;5.37;;;1.67;;
77304;SDS011;66364;52.622;7.746;2022-12-29T09:17:21;3.93;;;1.50;;
77304;SDS011;66364;52.622;7.746;2022-12-29T09:19:22;4.27;;;1.63;;
77304;SDS011;66364;52.622;7.746;2022-12-29T09:21:23;6.90;;;1.60;;
77304;SDS011;66364;52.622;7.746;2022-12-29T09:23:24;4.67;;;1.70;;
77304;SDS011;66364;52.622;7.746;2022-12-29T09:25:25;3.47;;;1.65;;
77304;SDS011;66364;52.622;7.746;2022-12-29T09:27:25;2.57;;;2.00;;
77304;SDS011;66364;52.622;7.746;2022-12-29T09:29:26;9.20;;;2.00;;
77304;SDS011;66364;52.622;7.746;2022-12-29T09:31:27;4.97;;;1.97;;
77304;SDS011;66364;52.622;7.746;2022-12-29T09:33:28;7.58;;;2.10;;
77304;SDS011;66364;52.622;7.746;2022-12-29T09:35:28;7.10;;;1.63;;
77304;SDS011;66364;52.622;7.746;2022-12-29T09:37:29;4.83;;;1.80;;
77304;SDS011;66364;52.622;7.746;2022-12-29T09:39:30;4.40;;;1.43;;
77304;SDS011;66364;52.622;7.746;2022-12-29T09:41:34;3.00;;;1.80;;
77304;SDS011;66364;52.622;7.746;2022-12-29T09:45:47;3.98;;;2.00;;
77304;SDS011;66364;52.622;7.746;2022-12-29T09:48:07;2.25;;;1.20;;
77304;SDS011;66364;52.622;7.746;2022-12-29T09:56:51;4.40;;;2.02;;
77304;SDS011;66364;52.622;7.746;2022-12-29T09:59:10;1.65;;;1.55;;
77304;SDS011;66364;52.622;7.746;2022-12-29T10:01:21;11.00;;;1.72;;
77304;SDS011;66364;52.622;7.746;2022-12-29T10:03:42;3.12;;;1.42;;
77304;SDS011;66364;52.622;7.746;2022-12-29T10:06:15;3.72;;;1.52;;
77304;SDS011;66364;52.622;7.746;2022-12-29T10:15:02;9.58;;;1.80;;
77304;SDS011;66364;52.622;7.746;2022-12-29T10:17:33;3.65;;;1.40;;
77304;SDS011;66364;52.622;7.746;2022-12-29T10:24:11;7.35;;;1.45;;
77304;SDS011;66364;52.622;7.746;2022-12-29T10:26:17;4.42;;;1.52;;
77304;SDS011;66364;52.622;7.746;2022-12-29T10:28:21;7.97;;;2.00;;
77304;SDS011;66364;52.622;7.746;2022-12-29T10:30:24;4.87;;;1.67;;
77304;SDS011;66364;52.622;7.746;2022-12-29T10:32:36;7.53;;;2.00;;
77304;SDS011;66364;52.622;7.746;2022-12-29T10:34:47;5.67;;;2.22;;
77304;SDS011;66364;52.622;7.746;2022-12-29T10:36:47;5.97;;;1.80;;
77304;SDS011;66364;52.622;7.746;2022-12-29T10:41:25;12.73;;;2.20;;
77304;SDS011;66364;52.622;7.746;2022-12-29T10:43:26;9.85;;;1.82;;
77304;SDS011;66364;52.622;7.746;2022-12-29T10:45:29;8.58;;;2.15;;
77304;SDS011;66364;52.622;7.746;2022-12-29T10:47:33;8.25;;;1.52;;
77304;SDS011;66364;52.622;7.746;2022-12-29T10:49:37;8.60;;;1.87;;
77304;SDS011;66364;52.622;7.746;2022-12-29T10:51:41;6.30;;;1.40;;
77304;SDS011;66364;52.622;7.746;2022-12-29T10:53:45;4.15;;;1.70;;
77304;SDS011;66364;52.622;7.746;2022-12-29T10:55:54;6.00;;;1.95;;
77304;SDS011;66364;52.622;7.746;2022-12-29T10:57:56;4.83;;;1.37;;
77304;SDS011;66364;52.622;7.746;2022-12-29T11:00:00;2.27;;;1.57;;
77304;SDS011;66364;52.622;7.746;2022-12-29T11:02:13;6.83;;;1.45;;
77304;SDS011;66364;52.622;7.746;2022-12-29T11:08:27;4.25;;;1.30;;
77304;SDS011;66364;52.622;7.746;2022-12-29T11:12:34;8.05;;;1.37;;
77304;SDS011;66364;52.622;7.746;2022-12-29T11:14:35;10.03;;;1.90;;
77304;SDS011;66364;52.622;7.746;2022-12-29T11:16:36;10.97;;;2.20;;
77304;SDS011;66364;52.622;7.746;2022-12-29T11:18:37;3.27;;;1.80;;
77304;SDS011;66364;52.622;7.746;2022-12-29T11:20:39;6.60;;;2.70;;
77304;SDS011;66364;52.622;7.746;2022-12-29T11:22:39;3.95;;;1.10;;
77304;SDS011;66364;52.622;7.746;2022-12-29T11:24:45;8.23;;;1.70;;
77304;SDS011;66364;52.622;7.746;2022-12-29T11:26:48;10.38;;;2.35;;
77304;SDS011;66364;52.622;7.746;2022-12-29T11:31:20;3.90;;;1.60;;
77304;SDS011;66364;52.622;7.746;2022-12-29T11:33:22;5.90;;;1.60;;
77304;SDS011;66364;52.622;7.746;2022-12-29T11:35:34;6.40;;;1.63;;
77304;SDS011;66364;52.622;7.746;2022-12-29T11:37:39;8.00;;;1.65;;
77304;SDS011;66364;52.622;7.746;2022-12-29T11:39:58;3.72;;;1.98;;
77304;SDS011;66364;52.622;7.746;2022-12-29T11:42:03;6.67;;;1.60;;
77304;SDS011;66364;52.622;7.746;2022-12-29T11:44:04;6.75;;;3.15;;
77304;SDS011;66364;52.622;7.746;2022-12-29T11:46:06;4.92;;;1.35;;
77304;SDS011;66364;52.622;7.746;2022-12-29T11:48:21;6.22;;;1.30;;
77304;SDS011;66364;52.622;7.746;2022-12-29T11:50:28;3.80;;;1.52;;
77304;SDS011;66364;52.622;7.746;2022-12-29T11:52:31;6.37;;;1.42;;
77304;SDS011;66364;52.622;7.746;2022-12-29T11:54:35;7.92;;;1.90;;
77304;SDS011;66364;52.622;7.746;2022-12-29T11:58:53;3.27;;;1.00;;
77304;SDS011;66364;52.622;7.746;2022-12-29T12:00:54;3.08;;;0.95;;
77304;SDS011;66364;52.622;7.746;2022-12-29T12:02:57;4.87;;;1.50;;
77304;SDS011;66364;52.622;7.746;2022-12-29T12:05:06;6.10;;;1.65;;
77304;SDS011;66364;52.622;7.746;2022-12-29T12:07:15;4.45;;;1.50;;
77304;SDS011;66364;52.622;7.746;2022-12-29T12:10:05;5.08;;;1.20;;
77304;SDS011;66364;52.622;7.746;2022-12-29T12:11:45;2.72;;;0.95;;
77304;SDS011;66364;52.622;7.746;2022-12-29T12:14:04;3.85;;;1.20;;
77304;SDS011;66364;52.622;7.746;2022-12-29T12:16:12;2.95;;;1.22;;
77304;SDS011;66364;52.622;7.746;2022-12-29T12:18:34;4.15;;;1.67;;
77304;SDS011;66364;52.622;7.746;2022-12-29T12:20:56;4.55;;;1.40;;
77304;SDS011;66364;52.622;7.746;2022-12-29T12:25:37;2.65;;;1.15;;
77304;SDS011;66364;52.622;7.746;2022-12-29T12:30:04;6.55;;;1.47;;
77304;SDS011;66364;52.622;7.746;2022-12-29T12:34:43;7.35;;;1.75;;
77304;SDS011;66364;52.622;7.746;2022-12-29T12:36:49;2.95;;;1.17;;
77304;SDS011;66364;52.622;7.746;2022-12-29T12:41:00;3.83;;;2.45;;
77304;SDS011;66364;52.622;7.746;2022-12-29T12:48:21;4.03;;;1.55;;
77304;SDS011;66364;52.622;7.746;2022-12-29T12:52:57;5.75;;;1.30;;
77304;SDS011;66364;52.622;7.746;2022-12-29T13:00:13;5.42;;;1.42;;
77304;SDS011;66364;52.622;7.746;2022-12-29T13:02:54;4.50;;;2.15;;
77304;SDS011;66364;52.622;7.746;2022-12-29T13:05:03;5.90;;;2.10;;
77304;SDS011;66364;52.622;7.746;2022-12-29T13:07:22;3.95;;;1.62;;
77304;SDS011;66364;52.622;7.746;2022-12-29T13:15:12;8.20;;;2.20;;
77304;SDS011;66364;52.622;7.746;2022-12-29T13:17:24;8.33;;;2.95;;
77304;SDS011;66364;52.622;7.746;2022-12-29T13:19:46;8.48;;;2.33;;
77304;SDS011;66364;52.622;7.746;2022-12-29T13:24:24;8.08;;;2.35;;
77304;SDS011;66364;52.622;7.746;2022-12-29T13:26:27;5.30;;;2.17;;
77304;SDS011;66364;52.622;7.746;2022-12-29T13:33:17;3.58;;;2.02;;
77304;SDS011;66364;52.622;7.746;2022-12-29T13:35:23;7.30;;;2.15;;
77304;SDS011;66364;52.622;7.746;2022-12-29T13:37:38;4.40;;;1.87;;
77304;SDS011;66364;52.622;7.746;2022-12-29T13:39:45;5.55;;;3.20;;
77304;SDS011;66364;52.622;7.746;2022-12-29T13:41:51;4.85;;;2.40;;
77304;SDS011;66364;52.622;7.746;2022-12-29T13:43:53;6.70;;;2.70;;
77304;SDS011;66364;52.622;7.746;2022-12-29T13:45:58;4.05;;;1.70;;
77304;SDS011;66364;52.622;7.746;2022-12-29T13:48:15;4.35;;;2.20;;
77304;SDS011;66364;52.622;7.746;2022-12-29T13:50:22;6.65;;;2.10;;
77304;SDS011;66364;52.622;7.746;2022-12-29T13:54:51;6.83;;;2.47;;
77304;SDS011;66364;52.622;7.746;2022-12-29T13:57:15;9.10;;;3.67;;
77304;SDS011;66364;52.622;7.746;2022-12-29T13:59:25;4.85;;;3.17;;
77304;SDS011;66364;52.622;7.746;2022-12-29T14:01:55;6.12;;;2.75;;
77304;SDS011;66364;52.622;7.746;2022-12-29T14:04:16;8.90;;;5.40;;
77304;SDS011;66364;52.622;7.746;2022-12-29T14:08:32;7.05;;;6.33;;
77304;SDS011;66364;52.622;7.746;2022-12-29T14:10:35;3.80;;;1.90;;
77304;SDS011;66364;52.622;7.746;2022-12-29T14:12:42;5.62;;;1.85;;
77304;SDS011;66364;52.622;7.746;2022-12-29T14:14:44;3.58;;;2.25;;
77304;SDS011;66364;52.622;7.746;2022-12-29T14:16:44;6.57;;;3.37;;
77304;SDS011;66364;52.622;7.746;2022-12-29T14:18:46;4.08;;;2.70;;
77304;SDS011;66364;52.622;7.746;2022-12-29T14:27:51;4.05;;;2.20;;